Disclaimer

Please do not use the information listed here in-flight or in-navigation, as they are not provided to us by the airports but are provided by volunteers, so they might be outdated.

Search


Regions


Airport information page

Radio informations:
Tower (TWR) - 118.35 MHz

Airport informations:
Latitude: 58° 52' 36.40" N
Longitude: 005° 38' 16.28" E
Elevation: 29 feet - 9 meters
Operating hours: 24 hour operations
Operating agency: Civil government, landing fees and diplomatic clearance may be required
Timezone: UTC+1(+2DT) - Last Sunday in March to last Sunday in October
Fuel: Jet A, without icing inhibitor.

Jet fuel avaiable but type is unknown.

100/130 MIL Spec, low lead, aviation gasoline (BLUE)

Runway information:
11/29 - 8035 x 148 feet< - >2449 x 45 meters
18/36 - 8385 x 197 feet< - >2556 x 60 meters

Recent METARs:
ENZV 181850Z VRB03KT 0250 R18/0300N R36/0450N R11/0325N FG VV001 03/03 Q1039 TEMPO 1000 BCFG BKN003
ENZV 181920Z VRB02KT 0300 R18/0375N R36/0400N R11/0550N FG VV001 03/03 Q1039 TEMPO 1000 BCFG BKN003
ENZV 181950Z 06003KT 0300 R18/0400N R36/0550N R11/0800N FG VV001 03/03 Q1039 TEMPO 1000 BCFG BKN003

Airport on the map: